Time;durP1;ratioP1;P1;durP2;ratioP2;P2;SDS_P1;SDS_P2;PMS_P1;PMS_P2;Temp;Humidity;BMP_temperature;BMP_pressure;BME280_temperature;BME280_humidity;BME280_pressure;Samples;Min_cycle;Max_cycle;Signal;HPM_P1;HPM_P2
2023/01/06 00:00:34;;;;;;;17.37;6.70;;;11.40;99.90;;;;;;5109183;28;20235;-69
2023/01/06 00:03:01;;;;;;;15.23;6.30;;;11.40;99.90;;;;;;5102683;28;20254;-68
2023/01/06 00:05:28;;;;;;;15.53;7.60;;;11.50;99.90;;;;;;5108735;28;20191;-68
2023/01/06 00:07:55;;;;;;;15.10;7.30;;;11.50;99.90;;;;;;5108988;28;20203;-70
2023/01/06 00:10:22;;;;;;;18.90;7.53;;;11.50;99.90;;;;;;5106633;28;20199;-68
2023/01/06 00:12:49;;;;;;;13.60;7.27;;;11.50;99.90;;;;;;5109920;28;20581;-70
2023/01/06 00:15:17;;;;;;;14.00;7.63;;;11.40;99.90;;;;;;5102657;28;20212;-69
2023/01/06 00:17:44;;;;;;;15.50;8.33;;;11.40;99.90;;;;;;5109469;28;20260;-69
2023/01/06 00:20:12;;;;;;;14.37;7.73;;;11.40;99.90;;;;;;5087186;28;20241;-69
2023/01/06 00:22:42;;;;;;;13.13;7.60;;;11.30;99.90;;;;;;5110307;28;20207;-69
2023/01/06 00:25:09;;;;;;;12.90;7.57;;;11.30;99.90;;;;;;5106204;28;20318;-69
2023/01/06 00:27:37;;;;;;;16.30;7.40;;;11.40;99.90;;;;;;5105215;28;20245;-68
2023/01/06 00:30:05;;;;;;;12.37;7.90;;;11.40;99.90;;;;;;5110221;28;20253;-69
2023/01/06 00:32:32;;;;;;;13.37;7.53;;;11.30;99.90;;;;;;5106450;28;20227;-69
2023/01/06 00:34:59;;;;;;;9.83;7.00;;;11.30;99.90;;;;;;5106325;28;20292;-70
2023/01/06 00:37:26;;;;;;;18.37;7.37;;;11.40;99.90;;;;;;5105260;28;20239;-69
2023/01/06 00:39:52;;;;;;;15.73;7.43;;;11.40;99.90;;;;;;5108933;28;20550;-69
2023/01/06 00:42:21;;;;;;;16.10;7.80;;;11.40;99.90;;;;;;5087282;28;20245;-70
2023/01/06 00:44:48;;;;;;;13.77;7.60;;;11.40;99.90;;;;;;5090352;28;20280;-69
2023/01/06 00:47:15;;;;;;;13.20;7.47;;;11.40;99.90;;;;;;5107802;28;20311;-69
2023/01/06 00:49:42;;;;;;;12.10;6.70;;;11.40;99.90;;;;;;5107303;28;20553;-69
2023/01/06 00:52:08;;;;;;;13.73;6.37;;;11.40;99.90;;;;;;5092733;28;20249;-69
2023/01/06 00:54:35;;;;;;;10.40;6.60;;;11.40;99.90;;;;;;5105576;28;20234;-69
2023/01/06 00:57:06;;;;;;;11.83;7.10;;;11.40;99.90;;;;;;5105472;28;20211;-69
2023/01/06 00:59:33;;;;;;;10.70;6.30;;;11.40;99.90;;;;;;5108576;28;20252;-69
2023/01/06 01:02:00;;;;;;;14.57;7.07;;;11.50;99.90;;;;;;5107967;28;20271;-69
2023/01/06 01:04:28;;;;;;;11.23;6.50;;;11.40;99.90;;;;;;5090496;28;20197;-69
2023/01/06 01:06:55;;;;;;;11.67;6.37;;;11.40;99.90;;;;;;5088383;28;20263;-70
2023/01/06 01:09:28;;;;;;;11.13;6.57;;;11.40;99.90;;;;;;5107030;28;20207;-69
2023/01/06 01:12:11;;;;;;;12.90;7.07;;;11.40;99.90;;;;;;5106672;28;20239;-69
2023/01/06 01:14:47;;;;;;;10.37;6.60;;;11.30;99.90;;;;;;5106763;28;20644;-69
2023/01/06 01:17:18;;;;;;;11.17;7.13;;;11.30;99.90;;;;;;5110350;28;20657;-69
2023/01/06 01:19:45;;;;;;;13.77;8.03;;;11.30;99.90;;;;;;5109919;28;20192;-70
2023/01/06 01:22:12;;;;;;;15.83;8.00;;;11.30;99.90;;;;;;5094085;28;20256;-68
2023/01/06 01:24:39;;;;;;;12.80;9.40;;;11.30;99.90;;;;;;5094556;28;20302;-69
2023/01/06 01:27:06;;;;;;;15.13;11.70;;;11.30;99.90;;;;;;5111639;28;20195;-69
2023/01/06 01:29:33;;;;;;;17.63;11.50;;;11.30;99.90;;;;;;5106064;28;20234;-69
2023/01/06 01:32:00;;;;;;;18.43;12.70;;;11.30;99.90;;;;;;5110147;28;20600;-70
2023/01/06 01:34:26;;;;;;;19.17;12.30;;;11.30;99.90;;;;;;5095222;28;20235;-70
2023/01/06 01:36:54;;;;;;;20.53;12.23;;;11.30;99.90;;;;;;5110500;28;20583;-70
2023/01/06 01:39:23;;;;;;;20.43;12.87;;;11.30;99.90;;;;;;5110714;28;20249;-70
2023/01/06 01:41:50;;;;;;;20.43;13.10;;;11.30;99.90;;;;;;5107415;28;20305;-70
2023/01/06 01:44:48;;;;;;;21.13;13.33;;;11.30;99.90;;;;;;5109681;28;20243;-71
2023/01/06 01:47:41;;;;;;;18.07;11.83;;;11.30;99.90;;;;;;5105399;28;20315;-69
2023/01/06 01:50:24;;;;;;;16.53;11.77;;;11.20;99.90;;;;;;5091261;28;20278;-69
2023/01/06 01:52:56;;;;;;;17.50;11.33;;;11.20;99.90;;;;;;5112029;28;20266;-70
2023/01/06 01:55:25;;;;;;;15.30;10.53;;;11.20;99.90;;;;;;5106212;28;20659;-69
2023/01/06 01:58:01;;;;;;;14.80;10.87;;;11.30;99.90;;;;;;5111904;28;20214;-69
2023/01/06 02:00:28;;;;;;;20.50;10.37;;;11.20;99.90;;;;;;5089470;28;20205;-70
2023/01/06 02:02:56;;;;;;;16.20;10.10;;;11.20;99.90;;;;;;5107076;28;20207;-69
2023/01/06 02:05:25;;;;;;;13.13;9.33;;;11.20;99.90;;;;;;5093138;28;20647;-69
2023/01/06 02:07:56;;;;;;;11.73;8.37;;;11.20;99.90;;;;;;5107446;28;20275;-69
2023/01/06 02:10:24;;;;;;;16.37;8.73;;;11.30;99.90;;;;;;5088059;28;20299;-70
2023/01/06 02:12:56;;;;;;;12.50;8.70;;;11.30;99.90;;;;;;5109898;28;20330;-70
2023/01/06 02:15:28;;;;;;;12.13;8.77;;;11.20;99.90;;;;;;5094334;28;20738;-70
2023/01/06 02:18:20;;;;;;;16.10;8.27;;;11.20;99.90;;;;;;5112003;28;20254;-70
2023/01/06 02:20:54;;;;;;;12.17;7.33;;;11.20;99.90;;;;;;5109307;28;20286;-70
2023/01/06 02:23:31;;;;;;;15.07;7.90;;;11.20;99.90;;;;;;5108247;28;20242;-69
2023/01/06 02:26:19;;;;;;;11.67;7.03;;;11.30;99.90;;;;;;5105814;28;20229;-70
2023/01/06 02:29:10;;;;;;;8.47;6.60;;;11.20;99.90;;;;;;5108520;28;20230;-70
2023/01/06 02:31:40;;;;;;;8.50;6.43;;;11.30;99.90;;;;;;5107651;28;20241;-69
2023/01/06 02:34:13;;;;;;;8.73;6.70;;;11.30;99.90;;;;;;5111912;28;20221;-70
2023/01/06 02:37:05;;;;;;;9.30;6.83;;;11.30;99.90;;;;;;5106903;28;20638;-69
2023/01/06 02:39:46;;;;;;;11.90;6.20;;;11.30;99.90;;;;;;5093279;28;20195;-68
2023/01/06 02:42:18;;;;;;;7.43;6.67;;;11.30;99.90;;;;;;5105624;28;20294;-69
2023/01/06 02:44:58;;;;;;;10.40;6.30;;;11.30;99.90;;;;;;5089491;28;20220;-69
2023/01/06 02:47:47;;;;;;;10.20;5.93;;;11.30;99.90;;;;;;5089502;28;20266;-69
2023/01/06 02:50:29;;;;;;;8.93;6.03;;;11.30;99.90;;;;;;5086295;28;20208;-69
2023/01/06 02:53:36;;;;;;;6.47;4.97;;;11.30;99.90;;;;;;5085859;28;20259;-70
2023/01/06 02:56:04;;;;;;;8.80;5.63;;;11.20;99.90;;;;;;5078559;28;20287;-70
2023/01/06 02:59:00;;;;;;;7.77;5.30;;;11.20;99.90;;;;;;5085926;28;20235;-70
2023/01/06 03:01:34;;;;;;;10.27;5.30;;;11.30;99.90;;;;;;5089599;28;20224;-70
2023/01/06 03:04:06;;;;;;;7.30;4.77;;;11.20;99.90;;;;;;5087562;28;20321;-70
2023/01/06 03:06:35;;;;;;;7.23;5.07;;;11.30;99.90;;;;;;5083495;28;20549;-70
2023/01/06 03:09:04;;;;;;;7.60;5.20;;;11.30;99.90;;;;;;5087613;28;20287;-69
2023/01/06 03:11:33;;;;;;;7.17;5.13;;;11.30;99.90;;;;;;5086132;28;20315;-69
2023/01/06 03:14:30;;;;;;;7.27;5.20;;;11.20;99.90;;;;;;5087665;28;20318;-70
2023/01/06 03:16:57;;;;;;;10.50;4.93;;;11.30;99.90;;;;;;5086720;28;20303;-69
2023/01/06 03:19:24;;;;;;;6.83;4.77;;;11.30;99.90;;;;;;5086835;28;20226;-69
2023/01/06 03:21:52;;;;;;;7.07;5.17;;;11.20;99.90;;;;;;5089229;28;20634;-69
2023/01/06 03:24:19;;;;;;;7.00;4.60;;;11.30;99.90;;;;;;5086229;28;20247;-69
2023/01/06 03:26:47;;;;;;;7.17;4.70;;;11.30;99.90;;;;;;5085381;28;20204;-69
2023/01/06 03:29:17;;;;;;;6.60;4.70;;;11.30;99.90;;;;;;5090788;28;20216;-69
2023/01/06 03:32:13;;;;;;;7.13;4.07;;;11.30;99.90;;;;;;5085589;28;20591;-70
2023/01/06 03:34:51;;;;;;;5.57;4.10;;;11.30;99.90;;;;;;5085001;28;20235;-70
2023/01/06 03:38:00;;;;;;;5.77;3.57;;;11.30;99.90;;;;;;5081755;28;21052;-70
2023/01/06 03:40:34;;;;;;;6.67;4.30;;;11.30;99.90;;;;;;5034505;28;20289;-70
2023/01/06 03:43:12;;;;;;;8.07;4.30;;;11.20;99.90;;;;;;5089753;28;20238;-70
2023/01/06 03:46:12;;;;;;;5.87;3.87;;;11.30;99.90;;;;;;5108269;28;20211;-69
2023/01/06 03:48:58;;;;;;;9.47;4.20;;;11.20;99.90;;;;;;5109543;28;20242;-70
2023/01/06 03:51:57;;;;;;;6.37;3.83;;;11.30;99.90;;;;;;5104285;28;20278;-71
2023/01/06 03:54:47;;;;;;;6.57;3.60;;;11.30;99.90;;;;;;5087257;28;20305;-70
2023/01/06 03:57:29;;;;;;;6.50;3.43;;;11.30;99.90;;;;;;5102134;28;20291;-70
2023/01/06 04:00:02;;;;;;;4.77;3.47;;;11.30;99.90;;;;;;5109571;28;20241;-71
2023/01/06 04:02:29;;;;;;;6.17;3.50;;;11.30;99.90;;;;;;5088516;28;20301;-70
2023/01/06 04:05:18;;;;;;;4.83;3.07;;;11.30;99.90;;;;;;5106041;28;20378;-70
2023/01/06 04:07:46;;;;;;;8.17;3.43;;;11.30;99.90;;;;;;5108527;28;20211;-70
2023/01/06 04:10:14;;;;;;;6.10;3.77;;;11.30;99.90;;;;;;5104982;28;20298;-70
2023/01/06 04:12:41;;;;;;;7.87;3.43;;;11.30;99.90;;;;;;5109493;28;20223;-68
2023/01/06 04:15:12;;;;;;;10.30;3.50;;;11.30;99.90;;;;;;5103081;28;20596;-70
2023/01/06 04:17:40;;;;;;;5.93;3.07;;;11.20;99.90;;;;;;5091949;28;20631;-70
2023/01/06 04:20:09;;;;;;;3.77;2.80;;;11.30;99.90;;;;;;5108327;28;20742;-70
2023/01/06 04:22:36;;;;;;;7.40;3.20;;;11.30;99.90;;;;;;5109451;28;20290;-70
2023/01/06 04:25:04;;;;;;;5.03;2.73;;;11.30;99.90;;;;;;5107809;28;20643;-69
2023/01/06 04:27:31;;;;;;;5.93;2.90;;;11.30;99.90;;;;;;5102585;28;20272;-70
2023/01/06 04:29:58;;;;;;;7.40;3.30;;;11.30;99.90;;;;;;5106224;28;20205;-70
2023/01/06 04:32:24;;;;;;;3.77;2.30;;;11.30;99.90;;;;;;5108668;28;20238;-72
2023/01/06 04:34:51;;;;;;;3.60;2.40;;;11.30;99.90;;;;;;5110578;28;20200;-70
2023/01/06 04:37:18;;;;;;;6.80;2.50;;;11.30;99.90;;;;;;5108132;28;20686;-70
2023/01/06 04:39:47;;;;;;;4.27;2.40;;;11.30;99.90;;;;;;5092398;28;20195;-70
2023/01/06 04:42:13;;;;;;;3.40;2.40;;;11.20;99.90;;;;;;5104480;28;20238;-71
2023/01/06 04:44:41;;;;;;;4.37;2.40;;;11.20;99.90;;;;;;5107613;28;20314;-70
2023/01/06 04:47:09;;;;;;;2.87;2.20;;;11.20;99.90;;;;;;5105748;28;20314;-70
2023/01/06 04:49:36;;;;;;;4.13;2.30;;;11.30;99.90;;;;;;5112775;28;20643;-68
2023/01/06 04:52:04;;;;;;;7.23;3.07;;;11.20;99.90;;;;;;5112172;28;20218;-70
2023/01/06 04:54:31;;;;;;;7.47;2.53;;;11.20;99.90;;;;;;5108283;28;20207;-69
2023/01/06 04:56:57;;;;;;;3.37;2.00;;;11.20;99.90;;;;;;5111613;28;20242;-69
2023/01/06 04:59:24;;;;;;;4.00;2.37;;;11.20;99.90;;;;;;5110871;28;20207;-69
2023/01/06 05:01:51;;;;;;;3.57;2.20;;;11.20;99.90;;;;;;5093166;28;20203;-69
2023/01/06 05:04:18;;;;;;;5.77;2.10;;;11.20;99.90;;;;;;5109618;28;20548;-69
2023/01/06 05:06:45;;;;;;;4.80;1.97;;;11.20;99.90;;;;;;5109977;28;20241;-69
2023/01/06 05:09:11;;;;;;;6.77;2.70;;;11.20;99.90;;;;;;5113220;28;20597;-69
2023/01/06 05:11:38;;;;;;;4.60;2.50;;;11.30;99.90;;;;;;5091751;28;20289;-69
2023/01/06 05:14:05;;;;;;;7.63;2.37;;;11.30;99.90;;;;;;5092272;28;20207;-69
2023/01/06 05:16:33;;;;;;;3.50;2.23;;;11.20;99.90;;;;;;5107575;28;20251;-70
2023/01/06 05:19:00;;;;;;;2.67;2.40;;;11.30;99.90;;;;;;5107790;28;20203;-69
2023/01/06 05:21:28;;;;;;;4.00;2.50;;;11.30;99.90;;;;;;5110240;28;21168;-70
2023/01/06 05:23:58;;;;;;;4.27;3.03;;;11.30;99.90;;;;;;5105250;28;20195;-69
2023/01/06 05:26:26;;;;;;;3.23;2.70;;;11.30;99.90;;;;;;5111605;28;20278;-69
2023/01/06 05:28:53;;;;;;;5.17;2.80;;;11.20;99.90;;;;;;5112441;28;20195;-69
2023/01/06 05:31:20;;;;;;;4.70;2.80;;;11.20;99.90;;;;;;5108583;28;20220;-69
2023/01/06 05:33:47;;;;;;;5.87;3.60;;;11.10;99.90;;;;;;5108681;28;20215;-69
2023/01/06 05:36:16;;;;;;;8.73;3.37;;;11.10;99.90;;;;;;5108339;28;20245;-69
2023/01/06 05:38:43;;;;;;;4.77;2.73;;;11.10;99.90;;;;;;5112279;28;20742;-69
2023/01/06 05:41:10;;;;;;;5.63;3.43;;;11.10;99.90;;;;;;5112331;28;20217;-69
2023/01/06 05:43:37;;;;;;;7.63;3.30;;;11.10;99.90;;;;;;5106939;28;20714;-69
2023/01/06 05:46:07;;;;;;;4.70;3.13;;;11.10;99.90;;;;;;5106366;28;20203;-69
2023/01/06 05:48:34;;;;;;;6.37;3.40;;;11.20;99.90;;;;;;5089592;28;20225;-69
2023/01/06 05:51:07;;;;;;;4.43;3.33;;;11.20;99.90;;;;;;5108284;28;20290;-69
2023/01/06 05:53:37;;;;;;;3.43;3.00;;;11.20;99.90;;;;;;5106646;28;20259;-69
2023/01/06 05:56:05;;;;;;;4.67;2.70;;;11.20;99.90;;;;;;5105074;28;20286;-70
2023/01/06 05:58:32;;;;;;;3.57;2.80;;;11.20;99.90;;;;;;5108993;28;20586;-69
2023/01/06 06:01:03;;;;;;;3.97;2.87;;;11.30;99.90;;;;;;5106939;28;20286;-70
2023/01/06 06:03:31;;;;;;;5.27;3.30;;;11.30;99.90;;;;;;5106993;28;20279;-69
2023/01/06 06:06:03;;;;;;;4.83;3.60;;;11.30;99.90;;;;;;5106999;28;20248;-69
2023/01/06 06:08:30;;;;;;;7.70;3.37;;;11.30;99.90;;;;;;5108446;28;20250;-70
2023/01/06 06:11:05;;;;;;;4.90;3.87;;;11.20;99.90;;;;;;5093820;28;20243;-69
2023/01/06 06:13:32;;;;;;;4.20;3.80;;;11.20;99.90;;;;;;5109847;28;20242;-69
2023/01/06 06:16:10;;;;;;;4.53;3.63;;;11.10;99.90;;;;;;5103995;28;20541;-69
2023/01/06 06:18:41;;;;;;;4.77;4.00;;;11.10;99.90;;;;;;5109750;28;20195;-69
2023/01/06 06:21:13;;;;;;;6.57;3.90;;;11.10;99.90;;;;;;5112750;28;20638;-69
2023/01/06 06:23:41;;;;;;;4.63;3.93;;;11.10;99.90;;;;;;5112298;28;20253;-69
2023/01/06 06:26:10;;;;;;;5.80;4.00;;;11.10;99.90;;;;;;5112266;28;20196;-69
2023/01/06 06:28:38;;;;;;;8.13;4.50;;;11.10;99.90;;;;;;5112237;28;20218;-69
2023/01/06 06:31:19;;;;;;;7.77;4.40;;;11.10;99.90;;;;;;5094544;28;20622;-70
2023/01/06 06:33:49;;;;;;;5.27;4.10;;;11.00;99.90;;;;;;5111271;28;20227;-69
2023/01/06 06:36:16;;;;;;;4.93;4.47;;;11.00;99.90;;;;;;5109753;28;20207;-69
2023/01/06 06:38:48;;;;;;;6.10;4.43;;;11.00;99.90;;;;;;5109831;28;20214;-69
2023/01/06 06:41:15;;;;;;;6.70;4.73;;;11.00;99.90;;;;;;5084285;28;20326;-70
2023/01/06 06:43:41;;;;;;;5.37;4.10;;;11.00;99.90;;;;;;5109271;28;20227;-70
2023/01/06 06:46:09;;;;;;;6.83;5.13;;;11.00;99.90;;;;;;5110059;28;20237;-69
2023/01/06 06:48:37;;;;;;;7.60;4.80;;;11.00;99.90;;;;;;5111285;28;20210;-69
2023/01/06 06:51:09;;;;;;;7.90;5.07;;;11.10;99.90;;;;;;5108663;28;20700;-69
2023/01/06 06:53:36;;;;;;;5.53;4.97;;;11.00;99.90;;;;;;5111381;28;20674;-69
2023/01/06 06:56:05;;;;;;;7.37;5.43;;;11.00;99.90;;;;;;5076648;28;20257;-69
2023/01/06 06:58:32;;;;;;;8.70;5.67;;;11.00;99.90;;;;;;5111888;28;20542;-68
2023/01/06 07:01:10;;;;;;;7.13;5.57;;;11.00;99.90;;;;;;5110258;28;20234;-70
2023/01/06 07:03:37;;;;;;;6.70;5.47;;;11.00;99.90;;;;;;5103788;28;20234;-69
2023/01/06 07:06:06;;;;;;;7.43;6.00;;;11.00;99.90;;;;;;5110550;28;20301;-70
2023/01/06 07:08:33;;;;;;;7.70;5.47;;;11.00;99.90;;;;;;5107982;28;20266;-70
2023/01/06 07:11:00;;;;;;;7.60;5.23;;;11.00;99.90;;;;;;5110354;28;20293;-69
2023/01/06 07:13:27;;;;;;;6.10;5.10;;;11.00;99.90;;;;;;5111213;28;20318;-69
2023/01/06 07:15:54;;;;;;;9.30;5.70;;;11.10;99.90;;;;;;5109551;28;20210;-69
2023/01/06 07:18:21;;;;;;;5.97;5.03;;;11.10;99.90;;;;;;5110658;28;20215;-68
2023/01/06 07:20:49;;;;;;;6.87;5.50;;;11.00;99.90;;;;;;5109790;28;20257;-69
2023/01/06 07:23:16;;;;;;;7.50;5.40;;;11.00;99.90;;;;;;5110920;28;20284;-68
2023/01/06 07:25:43;;;;;;;10.83;5.67;;;11.00;99.90;;;;;;5098999;28;20196;-67
2023/01/06 07:28:09;;;;;;;6.80;5.90;;;11.00;99.90;;;;;;5099008;28;20213;-68
2023/01/06 07:30:36;;;;;;;7.10;6.23;;;11.00;99.90;;;;;;5099916;28;20207;-67
2023/01/06 07:33:03;;;;;;;7.53;5.90;;;10.90;99.90;;;;;;5103450;28;20350;-67
2023/01/06 07:35:30;;;;;;;11.00;7.07;;;10.90;99.90;;;;;;5088418;28;20282;-69
2023/01/06 07:38:05;;;;;;;9.37;6.80;;;10.90;99.90;;;;;;5101556;28;20211;-69
2023/01/06 07:40:32;;;;;;;8.67;7.53;;;10.90;99.90;;;;;;5085777;28;20230;-69
2023/01/06 07:43:06;;;;;;;13.50;7.70;;;10.90;99.90;;;;;;5102463;28;20310;-70
2023/01/06 07:45:33;;;;;;;9.37;8.03;;;10.90;99.90;;;;;;5104290;28;20230;-70
2023/01/06 07:48:00;;;;;;;13.43;8.80;;;10.80;99.90;;;;;;5105319;28;20321;-70
2023/01/06 07:50:28;;;;;;;13.10;8.90;;;10.80;99.90;;;;;;5104178;28;20559;-69
2023/01/06 07:53:01;;;;;;;11.33;8.50;;;10.80;99.90;;;;;;5097634;28;20207;-69
2023/01/06 07:55:29;;;;;;;11.33;8.83;;;10.80;99.90;;;;;;5098432;28;20320;-68
2023/01/06 07:57:57;;;;;;;10.17;8.57;;;10.80;99.90;;;;;;5100979;28;20242;-69
2023/01/06 08:00:24;;;;;;;10.73;8.27;;;10.80;99.90;;;;;;5099885;28;20256;-70
2023/01/06 08:02:51;;;;;;;9.40;7.83;;;10.80;99.90;;;;;;5102100;28;20249;-70
2023/01/06 08:05:18;;;;;;;10.40;7.83;;;10.70;99.90;;;;;;5102477;28;20288;-68
2023/01/06 08:07:45;;;;;;;10.00;7.50;;;10.80;99.90;;;;;;5103745;28;20187;-71
2023/01/06 08:10:12;;;;;;;9.03;8.00;;;10.80;99.90;;;;;;5100859;28;20283;-70
2023/01/06 08:12:39;;;;;;;9.97;7.87;;;10.80;99.90;;;;;;5102178;28;20278;-71
2023/01/06 08:15:06;;;;;;;11.67;8.53;;;10.80;99.90;;;;;;5100959;28;20200;-69
2023/01/06 08:17:32;;;;;;;9.73;7.63;;;10.70;99.90;;;;;;5101315;28;20647;-68
2023/01/06 08:19:59;;;;;;;10.53;6.73;;;10.70;99.90;;;;;;5101720;28;20191;-69
2023/01/06 08:22:26;;;;;;;9.07;6.90;;;10.70;99.90;;;;;;5101756;28;20295;-69
2023/01/06 08:24:53;;;;;;;8.60;5.93;;;10.70;99.90;;;;;;5099915;28;20215;-69
2023/01/06 08:27:19;;;;;;;7.93;6.63;;;10.80;99.90;;;;;;5104429;28;20191;-70
2023/01/06 08:29:48;;;;;;;7.43;4.90;;;10.80;99.90;;;;;;5107305;28;20203;-69
2023/01/06 08:32:15;;;;;;;5.90;4.90;;;10.80;99.90;;;;;;5100514;28;20219;-68
2023/01/06 08:34:42;;;;;;;7.20;4.20;;;10.80;99.90;;;;;;5103594;28;20789;-69
2023/01/06 08:37:09;;;;;;;7.60;4.17;;;10.70;99.90;;;;;;5101509;28;20202;-69
2023/01/06 08:39:35;;;;;;;9.07;4.50;;;10.70;99.90;;;;;;5088301;28;20290;-69
2023/01/06 08:42:02;;;;;;;6.30;3.63;;;10.70;99.90;;;;;;5106653;28;20210;-69
2023/01/06 08:44:29;;;;;;;4.47;3.23;;;10.60;99.90;;;;;;5104285;28;20228;-69
2023/01/06 08:46:56;;;;;;;4.77;3.00;;;10.50;99.90;;;;;;5106451;28;20211;-71
2023/01/06 08:49:23;;;;;;;6.70;2.93;;;10.50;99.90;;;;;;5103379;28;20265;-70
2023/01/06 08:51:49;;;;;;;6.93;3.20;;;10.40;99.90;;;;;;5102184;28;20193;-70
2023/01/06 08:54:16;;;;;;;4.87;2.87;;;10.40;99.90;;;;;;5080497;28;20259;-71
2023/01/06 08:56:43;;;;;;;10.80;2.90;;;10.30;99.90;;;;;;5097864;28;20222;-70
2023/01/06 08:59:13;;;;;;;8.63;3.13;;;10.30;99.90;;;;;;5103853;28;20207;-70
2023/01/06 09:01:41;;;;;;;6.50;3.07;;;10.30;99.90;;;;;;5104171;28;20967;-69
2023/01/06 09:04:09;;;;;;;9.77;3.83;;;10.20;99.90;;;;;;5099555;28;20260;-69
2023/01/06 09:06:36;;;;;;;8.93;3.90;;;10.20;99.90;;;;;;5106610;28;20217;-69
2023/01/06 09:09:05;;;;;;;8.40;3.43;;;10.20;99.90;;;;;;5100998;28;20244;-69
2023/01/06 09:11:32;;;;;;;10.20;3.80;;;10.20;99.90;;;;;;5087095;28;20204;-69
2023/01/06 09:13:59;;;;;;;6.87;4.53;;;10.10;99.90;;;;;;5103928;28;20801;-68
2023/01/06 09:16:25;;;;;;;10.77;4.37;;;10.20;99.90;;;;;;5105527;28;20586;-68
2023/01/06 09:18:52;;;;;;;7.27;4.50;;;10.20;99.90;;;;;;5102272;28;20199;-68
2023/01/06 09:21:21;;;;;;;8.83;5.27;;;10.20;99.90;;;;;;5103899;28;20205;-70
2023/01/06 09:23:48;;;;;;;9.53;5.40;;;10.10;99.90;;;;;;5103381;28;20264;-69
2023/01/06 09:26:16;;;;;;;9.57;5.90;;;10.20;99.90;;;;;;5099013;28;20195;-70
2023/01/06 09:28:43;;;;;;;13.53;5.73;;;10.20;99.90;;;;;;5104097;28;20734;-70
2023/01/06 09:31:11;;;;;;;11.40;6.10;;;10.20;99.90;;;;;;5105577;28;20557;-70
2023/01/06 09:33:38;;;;;;;12.40;6.23;;;10.20;99.90;;;;;;5103045;28;20294;-69
2023/01/06 09:36:05;;;;;;;11.80;6.57;;;10.20;99.90;;;;;;5104703;28;20540;-70
2023/01/06 09:38:32;;;;;;;13.23;6.50;;;10.20;99.90;;;;;;5090711;28;20286;-69
2023/01/06 09:41:16;;;;;;;8.20;5.87;;;10.30;99.90;;;;;;5101751;28;20290;-70
2023/01/06 09:44:16;;;;;;;10.27;6.40;;;10.30;99.90;;;;;;5087589;28;20314;-70
2023/01/06 09:46:45;;;;;;;12.27;5.90;;;10.30;99.90;;;;;;5104787;28;20207;-70
2023/01/06 09:49:41;;;;;;;8.97;5.53;;;10.30;99.90;;;;;;5107589;28;20195;-69
2023/01/06 09:52:33;;;;;;;8.97;5.33;;;10.30;99.90;;;;;;5109246;28;20282;-71
2023/01/06 09:55:32;;;;;;;12.40;4.73;;;10.40;99.90;;;;;;5082238;28;20204;-69
2023/01/06 09:58:07;;;;;;;9.43;4.70;;;10.40;99.90;;;;;;5100242;28;20329;-68
2023/01/06 10:00:35;;;;;;;9.27;4.10;;;;;;;;;;5087751;28;20251;-70
2023/01/06 10:03:02;;;;;;;8.17;3.17;;;10.40;99.90;;;;;;5106425;28;20671;-71
2023/01/06 10:05:47;;;;;;;9.60;3.77;;;10.40;99.90;;;;;;5108881;28;20199;-70
2023/01/06 10:08:41;;;;;;;13.97;3.77;;;10.30;99.90;;;;;;5091800;28;20290;-73
2023/01/06 10:11:07;;;;;;;10.83;3.53;;;10.40;99.90;;;;;;5102636;28;20198;-70
2023/01/06 10:13:50;;;;;;;6.43;2.83;;;10.30;99.90;;;;;;5108678;28;20314;-70
2023/01/06 10:16:30;;;;;;;7.83;2.87;;;10.30;99.90;;;;;;5108814;28;20721;-70
2023/01/06 10:19:13;;;;;;;6.63;2.80;;;10.30;99.90;;;;;;5109140;28;20226;-69
2023/01/06 10:21:46;;;;;;;8.20;2.47;;;10.30;99.90;;;;;;5105401;28;20306;-69
2023/01/06 10:24:19;;;;;;;8.87;2.33;;;10.30;99.90;;;;;;5108019;28;20673;-70
2023/01/06 10:26:52;;;;;;;5.73;2.60;;;10.30;99.90;;;;;;5104342;28;20222;-69
2023/01/06 10:29:20;;;;;;;5.73;2.50;;;10.30;99.90;;;;;;5087218;28;20245;-69
2023/01/06 10:31:50;;;;;;;7.87;2.83;;;10.30;99.90;;;;;;5110031;28;20279;-69
2023/01/06 10:34:21;;;;;;;8.57;2.60;;;10.30;99.90;;;;;;5101807;28;20259;-69
2023/01/06 10:37:00;;;;;;;8.30;2.37;;;10.30;99.90;;;;;;5085026;28;20203;-70
2023/01/06 10:39:28;;;;;;;10.33;2.50;;;10.30;99.90;;;;;;5107512;28;20245;-68
2023/01/06 10:45:11;;;;;;;9.60;2.23;;;10.30;99.90;;;;;;5109004;28;20197;-70
2023/01/06 10:47:41;;;;;;;12.20;2.20;;;10.30;99.90;;;;;;5087964;28;20321;-70
2023/01/06 10:50:14;;;;;;;8.03;2.67;;;10.30;99.90;;;;;;5103372;28;20201;-68
2023/01/06 10:52:41;;;;;;;3.53;1.53;;;10.30;99.90;;;;;;5107326;28;20199;-69
2023/01/06 10:55:39;;;;;;;9.53;2.37;;;10.40;99.90;;;;;;5108649;28;20275;-70
2023/01/06 10:58:33;;;;;;;6.87;2.73;;;10.40;99.90;;;;;;5107450;28;20233;-69
2023/01/06 11:01:10;;;;;;;9.10;2.27;;;10.40;99.90;;;;;;5103723;28;20591;-69
2023/01/06 11:03:41;;;;;;;7.87;2.73;;;10.40;99.90;;;;;;5104549;28;20220;-70
2023/01/06 11:06:17;;;;;;;7.40;2.47;;;10.50;99.90;;;;;;5107044;28;20240;-69
2023/01/06 11:08:44;;;;;;;9.23;2.70;;;10.60;99.90;;;;;;5103929;28;20286;-70
2023/01/06 11:11:15;;;;;;;5.53;2.60;;;10.60;99.90;;;;;;5106427;28;20293;-69
2023/01/06 11:13:58;;;;;;;8.67;2.97;;;10.70;99.90;;;;;;5105729;28;20809;-69
2023/01/06 11:16:28;;;;;;;7.40;2.43;;;10.80;99.90;;;;;;5105329;28;20569;-69
2023/01/06 11:19:07;;;;;;;5.70;2.40;;;10.80;99.90;;;;;;5108856;28;20192;-69
2023/01/06 11:21:47;;;;;;;5.87;3.03;;;10.80;99.90;;;;;;5104454;28;20282;-70
2023/01/06 11:24:20;;;;;;;10.77;2.90;;;10.80;99.90;;;;;;5101769;28;20199;-69
2023/01/06 11:26:56;;;;;;;9.10;2.60;;;10.80;99.90;;;;;;5105038;28;20614;-69
2023/01/06 11:29:26;;;;;;;7.63;2.90;;;10.90;99.90;;;;;;5100364;28;20229;-70
2023/01/06 11:31:54;;;;;;;8.67;2.57;;;10.90;99.90;;;;;;5100314;28;20250;-69
2023/01/06 11:34:27;;;;;;;8.47;2.63;;;10.90;99.90;;;;;;5102185;28;20309;-69
2023/01/06 11:36:55;;;;;;;7.37;2.73;;;10.90;99.90;;;;;;5103503;28;20671;-68
2023/01/06 11:39:29;;;;;;;12.07;3.07;;;10.90;99.90;;;;;;5104684;28;20681;-69
2023/01/06 11:42:03;;;;;;;10.97;3.03;;;10.90;99.90;;;;;;5090578;28;20639;-69
2023/01/06 11:44:34;;;;;;;10.87;2.60;;;10.90;99.90;;;;;;5102666;28;20279;-68
2023/01/06 11:47:14;;;;;;;6.40;2.20;;;10.80;99.90;;;;;;5106111;28;20219;-69
2023/01/06 11:49:48;;;;;;;10.67;2.67;;;10.80;99.90;;;;;;5098918;28;20199;-68
2023/01/06 11:52:35;;;;;;;6.77;2.50;;;10.80;99.90;;;;;;5103899;28;20233;-67
2023/01/06 11:55:07;;;;;;;6.57;2.40;;;10.80;99.90;;;;;;5099225;28;20683;-69
2023/01/06 11:58:17;;;;;;;7.63;2.00;;;10.70;99.90;;;;;;5104780;28;20202;-69
2023/01/06 12:00:55;;;;;;;6.20;1.73;;;10.80;99.90;;;;;;5106894;28;20243;-68
2023/01/06 12:03:42;;;;;;;5.33;1.73;;;10.70;99.90;;;;;;5088740;28;20541;-69
2023/01/06 12:06:23;;;;;;;5.70;1.73;;;10.70;99.90;;;;;;5100375;28;21166;-69
2023/01/06 12:09:00;;;;;;;5.13;1.40;;;10.80;99.90;;;;;;5083525;28;20292;-68
2023/01/06 12:11:42;;;;;;;10.43;1.37;;;10.80;99.90;;;;;;5099799;28;20199;-69
2023/01/06 12:14:27;;;;;;;7.80;2.20;;;10.90;99.90;;;;;;5099286;28;20238;-70
2023/01/06 12:16:55;;;;;;;5.70;1.47;;;10.90;99.90;;;;;;5096836;28;20265;-68
2023/01/06 12:19:30;;;;;;;7.00;1.67;;;10.90;99.90;;;;;;5103037;28;20203;-69
2023/01/06 12:21:59;;;;;;;6.47;1.60;;;10.90;99.90;;;;;;5083142;28;20241;-70
2023/01/06 12:24:27;;;;;;;6.83;1.57;;;11.00;99.90;;;;;;5106515;28;20707;-69
2023/01/06 12:26:55;;;;;;;5.67;1.57;;;11.00;99.90;;;;;;5070860;28;20248;-69
2023/01/06 12:29:22;;;;;;;7.37;1.70;;;11.00;99.90;;;;;;5104504;28;20233;-70
2023/01/06 12:32:02;;;;;;;5.20;1.50;;;11.00;99.90;;;;;;5103748;28;20250;-70
2023/01/06 12:34:46;;;;;;;7.93;2.80;;;11.00;99.90;;;;;;5108794;28;20265;-68
2023/01/06 12:37:44;;;;;;;5.83;1.40;;;11.10;99.90;;;;;;5086495;28;20198;-70
2023/01/06 12:40:28;;;;;;;10.13;2.53;;;11.10;99.90;;;;;;5100878;28;20202;-69
2023/01/06 12:43:18;;;;;;;6.70;2.00;;;11.10;99.90;;;;;;5088082;28;20254;-68
2023/01/06 12:46:03;;;;;;;5.20;1.57;;;11.10;99.90;;;;;;5100909;28;20209;-69
2023/01/06 12:48:42;;;;;;;10.10;1.67;;;11.10;99.90;;;;;;5105762;28;20191;-70
2023/01/06 12:51:18;;;;;;;3.80;1.50;;;11.10;99.90;;;;;;5083118;28;20208;-70
2023/01/06 12:53:56;;;;;;;6.13;1.70;;;11.20;99.90;;;;;;5103981;28;20184;-69
2023/01/06 12:56:29;;;;;;;6.40;1.50;;;11.20;99.90;;;;;;5101240;28;20195;-69
2023/01/06 12:59:22;;;;;;;4.80;1.50;;;11.10;99.90;;;;;;5087920;28;20214;-70
2023/01/06 13:02:22;;;;;;;4.23;1.40;;;11.20;99.90;;;;;;5098703;28;20590;-70
2023/01/06 13:04:49;;;;;;;9.63;1.77;;;11.20;99.90;;;;;;5107525;28;20188;-69
2023/01/06 13:07:38;;;;;;;5.57;1.47;;;11.20;99.90;;;;;;5107771;28;20638;-69
2023/01/06 13:10:25;;;;;;;4.17;1.53;;;11.20;99.90;;;;;;5100429;28;20660;-69
2023/01/06 13:13:00;;;;;;;5.97;1.47;;;11.20;99.90;;;;;;5103400;28;20242;-69